Terminal Aerodrome Forecast
Issued by NWS

Home | Current Version | Previous Version | Text Only | Print | Product List | Glossary Off
Versions: 1 2 3 4 5 6 7 8 9 10 11 12 13 14 15 16 17 18 19 20 21 22 23 24 25

000
FTUS43 KGRB 121735
TAFATW
TAF
KATW 121735Z 1218/1318 33009G16KT P6SM BKN035
      TEMPO 1218/1220 SCT035
     FM122000 31009G14KT P6SM SCT025 SCT100
     FM130200 VRB03KT P6SM BKN090
     FM130900 15004KT P6SM -SN SCT015 BKN050
     FM131200 11007KT 1 1/2SM -SN BKN015
     FM131600 09010KT 1/2SM SN VV002=

USA.gov is the U.S. government's official web portal to all federal, state and local government web resources and services.